Time;durP1;ratioP1;P1;durP2;ratioP2;P2;SDS_P1;SDS_P2;PMS_P1;PMS_P2;Temp;Humidity;BMP_temperature;BMP_pressure;BME280_temperature;BME280_humidity;BME280_pressure;Samples;Min_cycle;Max_cycle;Signal;HPM_P1;HPM_P2
2023/03/24 00:00:38;;;;;;;5.05;2.40;;;12.20;87.50;;;;;;5012102;28;20053;-66
2023/03/24 00:03:11;;;;;;;6.82;2.83;;;12.20;87.60;;;;;;5012998;28;20056;-64
2023/03/24 00:05:49;;;;;;;5.63;2.72;;;12.20;87.60;;;;;;5010165;28;20048;-64
2023/03/24 00:08:22;;;;;;;5.28;2.30;;;12.20;87.60;;;;;;5005843;28;20129;-66
2023/03/24 00:11:00;;;;;;;6.13;2.30;;;12.20;87.60;;;;;;5011860;28;20068;-66
2023/03/24 00:13:37;;;;;;;4.68;2.10;;;12.20;87.40;;;;;;5006176;28;20064;-65
2023/03/24 00:16:13;;;;;;;4.38;2.08;;;12.20;87.60;;;;;;5010384;28;20048;-65
2023/03/24 00:18:51;;;;;;;3.88;1.65;;;12.20;87.50;;;;;;5012835;28;20037;-65
2023/03/24 00:21:26;;;;;;;5.50;2.10;;;12.20;87.60;;;;;;5009512;28;20052;-66
2023/03/24 00:24:00;;;;;;;4.97;2.13;;;12.20;87.70;;;;;;5014427;28;20493;-64
2023/03/24 00:26:36;;;;;;;3.95;2.00;;;12.20;87.70;;;;;;5008540;28;20049;-64
2023/03/24 00:29:12;;;;;;;4.07;2.10;;;12.20;87.80;;;;;;5012160;28;20038;-64
2023/03/24 00:31:46;;;;;;;5.50;2.03;;;12.20;87.90;;;;;;5011693;28;20115;-64
2023/03/24 00:34:21;;;;;;;5.90;2.05;;;12.20;87.90;;;;;;5013204;28;20456;-66
2023/03/24 00:36:54;;;;;;;4.47;2.60;;;12.20;88.00;;;;;;5010703;28;20104;-65
2023/03/24 00:39:28;;;;;;;5.15;2.33;;;12.20;88.00;;;;;;5006592;28;20065;-65
2023/03/24 00:42:02;;;;;;;4.90;2.20;;;12.20;88.00;;;;;;5012735;28;20054;-64
2023/03/24 00:44:37;;;;;;;4.68;2.47;;;12.20;88.00;;;;;;5008971;28;20049;-66
2023/03/24 00:47:10;;;;;;;4.68;2.30;;;12.20;87.90;;;;;;5014470;28;20123;-63
2023/03/24 00:49:44;;;;;;;4.50;2.40;;;12.20;88.00;;;;;;5023762;28;20038;-65
2023/03/24 00:52:20;;;;;;;4.97;2.60;;;12.20;88.00;;;;;;5032653;28;20048;-66
2023/03/24 00:54:56;;;;;;;5.78;2.15;;;12.20;88.00;;;;;;5014485;28;20064;-65
2023/03/24 00:57:33;;;;;;;4.70;2.67;;;12.20;88.10;;;;;;5014583;28;20041;-64
2023/03/24 01:00:13;;;;;;;5.18;2.20;;;12.20;88.10;;;;;;5032116;28;20465;-66
2023/03/24 01:02:53;;;;;;;5.10;1.80;;;12.20;88.20;;;;;;5010809;28;20401;-66
2023/03/24 01:05:29;;;;;;;4.18;2.03;;;12.20;88.20;;;;;;5009510;28;20049;-66
2023/03/24 01:08:06;;;;;;;4.22;1.70;;;12.20;88.20;;;;;;5012315;28;20050;-65
2023/03/24 01:10:51;;;;;;;4.53;1.80;;;12.20;88.30;;;;;;5012724;28;20049;-69
2023/03/24 01:13:27;;;;;;;3.05;1.50;;;12.20;88.30;;;;;;5010574;28;20046;-71
2023/03/24 01:16:03;;;;;;;4.18;1.60;;;12.20;88.30;;;;;;5008981;28;20165;-69
2023/03/24 01:18:39;;;;;;;4.88;1.58;;;12.20;88.30;;;;;;5010949;28;20037;-70
2023/03/24 01:21:13;;;;;;;6.45;1.88;;;12.20;88.20;;;;;;5013120;28;20064;-69
2023/03/24 01:23:46;;;;;;;2.95;1.30;;;12.20;88.40;;;;;;5012714;28;20053;-69
2023/03/24 01:26:20;;;;;;;3.17;1.75;;;12.20;88.40;;;;;;5027235;28;21699;-70
2023/03/24 01:28:53;;;;;;;4.63;2.00;;;12.20;88.40;;;;;;5005091;28;20066;-71
2023/03/24 01:31:28;;;;;;;3.75;1.80;;;12.20;88.30;;;;;;5031415;28;20053;-68
2023/03/24 01:34:02;;;;;;;4.22;2.00;;;12.10;88.20;;;;;;5034613;28;20550;-69
2023/03/24 01:36:36;;;;;;;3.58;2.20;;;12.10;88.20;;;;;;5011310;28;20061;-61
2023/03/24 01:39:09;;;;;;;4.55;2.17;;;12.10;88.20;;;;;;5013674;28;20053;-60
2023/03/24 01:41:43;;;;;;;3.22;1.98;;;12.10;88.20;;;;;;5012094;28;20061;-60
2023/03/24 01:44:29;;;;;;;5.55;2.10;;;12.00;88.20;;;;;;5012173;28;20046;-60
2023/03/24 01:47:07;;;;;;;5.93;2.50;;;12.00;88.10;;;;;;5009770;28;20072;-71
2023/03/24 01:49:46;;;;;;;5.97;2.50;;;12.00;88.00;;;;;;4993517;28;20460;-71
2023/03/24 01:52:24;;;;;;;4.63;2.42;;;12.00;88.20;;;;;;5012114;28;20052;-69
2023/03/24 01:55:00;;;;;;;4.93;2.30;;;11.90;88.30;;;;;;5030561;28;20069;-68
2023/03/24 01:57:37;;;;;;;4.72;3.13;;;11.90;88.40;;;;;;4998937;28;20041;-68
2023/03/24 02:00:32;;;;;;;6.03;2.42;;;11.90;88.50;;;;;;5005759;28;20054;-68
2023/03/24 02:03:40;;;;;;;4.10;2.30;;;11.90;88.40;;;;;;4996779;28;20126;-69
2023/03/24 02:06:15;;;;;;;4.85;2.45;;;11.90;88.20;;;;;;5025218;28;20151;-61
2023/03/24 02:08:52;;;;;;;5.25;2.13;;;11.90;88.20;;;;;;5028134;28;20056;-62
2023/03/24 02:11:33;;;;;;;5.72;2.75;;;11.90;88.20;;;;;;5013189;28;20363;-61
2023/03/24 02:14:08;;;;;;;4.78;2.33;;;11.90;88.30;;;;;;5029249;28;20058;-61
2023/03/24 02:17:05;;;;;;;4.60;2.50;;;11.90;88.30;;;;;;5023057;28;20049;-68
2023/03/24 02:20:10;;;;;;;5.57;2.50;;;11.90;88.30;;;;;;5012923;28;20143;-67
2023/03/24 02:23:23;;;;;;;4.55;2.25;;;11.90;88.20;;;;;;5004626;28;20415;-69
2023/03/24 02:26:25;;;;;;;5.95;2.53;;;11.90;88.30;;;;;;5012740;28;20099;-70
2023/03/24 02:29:13;;;;;;;5.50;2.78;;;11.80;88.30;;;;;;5032263;28;20144;-71
2023/03/24 02:32:09;;;;;;;4.43;2.20;;;11.80;88.40;;;;;;5022767;28;20041;-60
2023/03/24 02:35:22;;;;;;;4.47;1.85;;;11.90;88.30;;;;;;5036029;28;20522;-62
2023/03/24 02:38:44;;;;;;;4.45;2.40;;;11.80;88.30;;;;;;5015786;28;20097;-69
2023/03/24 02:41:26;;;;;;;4.97;2.40;;;11.80;88.20;;;;;;4948588;28;20070;-66
2023/03/24 02:44:05;;;;;;;4.78;2.15;;;11.80;88.40;;;;;;4952211;28;20066;-65
2023/03/24 02:46:53;;;;;;;4.13;2.20;;;11.70;88.40;;;;;;5014041;28;20072;-68
2023/03/24 02:49:34;;;;;;;4.80;2.47;;;11.70;88.50;;;;;;5014206;28;20107;-69
2023/03/24 02:52:16;;;;;;;5.18;2.45;;;11.80;88.60;;;;;;5012049;28;20547;-62
2023/03/24 02:55:00;;;;;;;6.78;2.90;;;11.70;88.70;;;;;;5005965;28;20061;-61
2023/03/24 02:57:42;;;;;;;4.53;2.78;;;11.70;88.70;;;;;;5025565;28;20523;-68
2023/03/24 03:00:46;;;;;;;5.22;2.50;;;11.70;88.60;;;;;;5012140;28;20049;-68
2023/03/24 03:03:50;;;;;;;5.57;2.97;;;11.70;88.50;;;;;;5011702;28;20060;-68
2023/03/24 03:06:30;;;;;;;6.07;2.85;;;11.70;88.70;;;;;;4993329;28;20041;-69
2023/03/24 03:09:07;;;;;;;6.15;2.97;;;11.70;88.70;;;;;;5016506;28;20068;-68
2023/03/24 03:11:45;;;;;;;7.85;3.00;;;11.70;88.70;;;;;;5012662;28;20134;-65
2023/03/24 03:14:24;;;;;;;6.18;2.75;;;11.70;88.80;;;;;;4995002;28;20045;-64
2023/03/24 03:17:02;;;;;;;6.35;2.70;;;11.70;88.80;;;;;;5010225;28;20119;-62
2023/03/24 03:19:40;;;;;;;7.97;3.00;;;11.70;88.80;;;;;;5011972;28;20057;-63
2023/03/24 03:22:18;;;;;;;8.18;2.95;;;11.70;89.00;;;;;;5014173;28;20049;-62
2023/03/24 03:25:02;;;;;;;6.40;2.55;;;11.70;89.00;;;;;;5014721;28;20132;-62
2023/03/24 03:27:38;;;;;;;6.00;2.92;;;11.70;89.00;;;;;;5031041;28;20038;-63
2023/03/24 03:30:18;;;;;;;7.68;3.13;;;11.60;89.00;;;;;;4996725;28;20408;-63
2023/03/24 03:32:56;;;;;;;5.75;2.88;;;11.70;89.00;;;;;;5012986;28;20054;-64
2023/03/24 03:35:33;;;;;;;5.93;3.00;;;11.60;88.90;;;;;;5014613;28;20097;-61
2023/03/24 03:38:14;;;;;;;5.40;2.92;;;11.70;88.90;;;;;;5013239;28;20534;-62
2023/03/24 03:40:53;;;;;;;5.35;2.90;;;11.70;88.80;;;;;;5011538;28;20057;-61
2023/03/24 03:43:32;;;;;;;6.53;2.92;;;11.60;88.90;;;;;;4997083;28;20057;-62
2023/03/24 03:46:08;;;;;;;7.30;3.03;;;11.70;88.70;;;;;;5024045;28;20049;-65
2023/03/24 03:48:43;;;;;;;6.13;2.78;;;11.60;88.70;;;;;;4994006;28;20072;-63
2023/03/24 03:51:19;;;;;;;4.82;2.33;;;11.60;88.80;;;;;;4995546;28;20510;-69
2023/03/24 03:53:59;;;;;;;5.05;2.80;;;11.60;88.80;;;;;;5008924;28;20054;-68
2023/03/24 03:56:35;;;;;;;4.35;2.53;;;11.60;88.90;;;;;;4994290;28;20049;-69
2023/03/24 03:59:28;;;;;;;5.43;2.78;;;11.60;88.90;;;;;;5004290;28;20049;-69
2023/03/24 04:02:37;;;;;;;5.13;2.50;;;11.60;88.90;;;;;;5014258;28;20077;-61
2023/03/24 04:05:28;;;;;;;4.82;2.42;;;11.60;88.80;;;;;;5010201;28;20052;-61
2023/03/24 04:08:16;;;;;;;5.07;2.40;;;11.60;88.90;;;;;;5024181;28;20068;-61
2023/03/24 04:11:23;;;;;;;5.45;2.70;;;11.60;88.90;;;;;;5015266;28;20053;-66
2023/03/24 04:14:39;;;;;;;4.38;2.60;;;11.60;89.00;;;;;;5011484;28;20048;-65
2023/03/24 04:18:04;;;;;;;4.80;2.45;;;11.60;89.00;;;;;;5025818;28;20422;-61
2023/03/24 04:21:12;;;;;;;4.78;2.55;;;11.60;89.00;;;;;;5033505;28;20167;-63
2023/03/24 04:23:56;;;;;;;5.68;2.80;;;11.60;89.00;;;;;;5023701;28;20044;-61
2023/03/24 04:26:40;;;;;;;5.78;2.67;;;11.60;89.00;;;;;;5013708;28;20128;-69
2023/03/24 04:29:19;;;;;;;7.28;4.00;;;11.60;89.10;;;;;;5015897;28;20053;-69
2023/03/24 04:32:01;;;;;;;5.57;2.47;;;11.50;89.20;;;;;;5034844;28;20053;-70
2023/03/24 04:34:40;;;;;;;5.35;2.70;;;11.60;89.20;;;;;;5022768;28;20423;-69
2023/03/24 04:37:31;;;;;;;5.78;2.65;;;11.50;89.20;;;;;;5012849;28;20057;-61
2023/03/24 04:40:16;;;;;;;5.18;2.85;;;11.60;89.20;;;;;;5012836;28;20511;-61
2023/03/24 04:42:51;;;;;;;7.15;2.80;;;11.60;89.30;;;;;;5012550;28;20050;-62
2023/03/24 04:45:32;;;;;;;4.88;2.83;;;11.60;89.30;;;;;;5027793;28;20073;-70
2023/03/24 04:48:20;;;;;;;4.97;2.63;;;11.60;89.20;;;;;;5022356;28;20048;-70
2023/03/24 04:51:12;;;;;;;4.60;2.42;;;11.60;89.30;;;;;;5024019;28;20050;-61
2023/03/24 04:53:54;;;;;;;6.85;3.03;;;11.60;89.10;;;;;;5010905;28;20092;-60
2023/03/24 04:56:33;;;;;;;6.10;2.85;;;11.70;88.50;;;;;;5012337;28;20524;-68
2023/03/24 04:59:16;;;;;;;5.47;2.70;;;11.70;88.60;;;;;;5006484;28;20045;-68
2023/03/24 05:01:56;;;;;;;4.90;2.45;;;11.70;88.60;;;;;;5005273;28;20057;-68
2023/03/24 05:04:55;;;;;;;4.13;2.28;;;11.70;88.50;;;;;;5015771;28;20098;-69
2023/03/24 05:07:43;;;;;;;6.05;2.50;;;11.80;88.70;;;;;;5009957;28;20314;-62
2023/03/24 05:10:18;;;;;;;5.15;2.40;;;11.80;88.70;;;;;;5009917;28;20064;-63
2023/03/24 05:12:55;;;;;;;3.78;2.10;;;11.90;88.80;;;;;;5010000;28;20376;-61
2023/03/24 05:15:47;;;;;;;6.20;2.65;;;11.90;88.70;;;;;;5031302;28;20080;-70
2023/03/24 05:18:32;;;;;;;6.13;2.42;;;11.90;88.80;;;;;;5014136;28;20408;-68
2023/03/24 05:21:06;;;;;;;5.50;3.00;;;11.90;88.70;;;;;;5015473;28;20134;-69
2023/03/24 05:23:41;;;;;;;5.07;2.47;;;12.00;88.50;;;;;;5032903;28;20058;-69
2023/03/24 05:26:15;;;;;;;5.13;2.85;;;12.00;88.90;;;;;;5033025;28;20048;-70
2023/03/24 05:29:04;;;;;;;4.50;2.50;;;12.00;89.00;;;;;;4994908;28;20063;-68
2023/03/24 05:31:37;;;;;;;4.13;2.75;;;12.00;89.10;;;;;;5032677;28;20053;-62
2023/03/24 05:34:14;;;;;;;7.00;3.40;;;12.00;88.90;;;;;;5007110;28;20122;-61
2023/03/24 05:37:13;;;;;;;5.95;3.00;;;12.10;89.10;;;;;;5019901;28;20112;-61
2023/03/24 05:39:51;;;;;;;7.20;3.03;;;12.10;89.10;;;;;;5015516;28;20410;-61
2023/03/24 05:42:43;;;;;;;4.82;2.72;;;12.10;89.50;;;;;;5030118;28;20052;-67
2023/03/24 05:45:16;;;;;;;5.50;2.80;;;12.10;89.30;;;;;;5005895;28;20056;-68
2023/03/24 05:47:50;;;;;;;5.70;2.63;;;12.10;89.40;;;;;;5030750;28;20124;-68
2023/03/24 05:50:35;;;;;;;5.45;2.40;;;12.10;89.20;;;;;;5016022;28;20286;-61
2023/03/24 05:53:10;;;;;;;5.63;2.70;;;12.10;89.40;;;;;;5013797;28;20500;-62
2023/03/24 05:56:10;;;;;;;6.00;2.33;;;12.10;89.40;;;;;;5022202;28;20056;-61
2023/03/24 05:59:00;;;;;;;5.90;2.45;;;12.10;89.50;;;;;;5012594;28;20049;-61
2023/03/24 06:02:08;;;;;;;4.35;2.63;;;12.20;89.40;;;;;;5005134;28;20052;-62
2023/03/24 06:04:56;;;;;;;4.38;2.60;;;12.10;89.70;;;;;;5018586;28;20080;-61
2023/03/24 06:07:31;;;;;;;5.78;2.80;;;12.10;89.50;;;;;;5036699;28;20053;-68
2023/03/24 06:10:06;;;;;;;4.95;2.45;;;12.10;89.40;;;;;;5016325;28;20079;-68
2023/03/24 06:12:47;;;;;;;4.70;2.40;;;12.10;89.60;;;;;;5031714;28;20129;-61
2023/03/24 06:15:21;;;;;;;4.55;2.70;;;12.10;90.00;;;;;;5014533;28;20053;-59
2023/03/24 06:17:59;;;;;;;4.20;2.22;;;12.10;89.60;;;;;;5012551;28;20535;-61
2023/03/24 06:20:34;;;;;;;4.32;2.38;;;12.10;89.40;;;;;;5036516;28;20128;-69
2023/03/24 06:23:11;;;;;;;6.80;3.10;;;12.10;89.80;;;;;;5013323;28;20043;-70
2023/03/24 06:26:00;;;;;;;4.22;2.33;;;12.10;89.80;;;;;;5020108;28;20092;-62
2023/03/24 06:28:34;;;;;;;5.38;3.13;;;12.10;89.70;;;;;;5007402;28;20052;-59
2023/03/24 06:31:17;;;;;;;5.20;3.00;;;12.10;89.90;;;;;;5029338;28;20072;-69
2023/03/24 06:33:52;;;;;;;4.53;2.45;;;12.10;89.80;;;;;;5009916;28;20076;-71
2023/03/24 06:36:25;;;;;;;4.70;2.30;;;12.20;89.80;;;;;;5030236;28;20153;-61
2023/03/24 06:38:58;;;;;;;3.78;2.35;;;12.20;89.60;;;;;;5031193;28;20056;-62
2023/03/24 06:41:32;;;;;;;4.40;2.60;;;12.20;89.40;;;;;;5017200;28;20119;-61
2023/03/24 06:44:08;;;;;;;3.80;2.20;;;12.20;90.00;;;;;;5017225;28;20136;-60
2023/03/24 06:46:44;;;;;;;3.20;1.92;;;12.20;89.80;;;;;;5032713;28;20045;-65
2023/03/24 06:49:17;;;;;;;3.92;2.20;;;12.20;89.70;;;;;;5018686;28;20554;-65
2023/03/24 06:51:51;;;;;;;3.17;1.67;;;12.30;89.70;;;;;;5018121;28;20046;-62
2023/03/24 06:54:28;;;;;;;3.35;1.88;;;12.30;89.50;;;;;;5006388;28;20051;-61
2023/03/24 06:57:01;;;;;;;2.67;1.73;;;12.30;89.30;;;;;;5016360;28;20127;-62
2023/03/24 07:00:04;;;;;;;4.32;1.77;;;12.30;89.10;;;;;;4996461;28;20431;-62
2023/03/24 07:02:56;;;;;;;2.42;1.30;;;12.40;89.30;;;;;;5009397;28;20045;-61
2023/03/24 07:05:29;;;;;;;3.50;1.60;;;12.40;89.00;;;;;;5021604;28;20049;-66
2023/03/24 07:08:03;;;;;;;3.80;1.77;;;12.40;88.80;;;;;;5005917;28;20056;-67
2023/03/24 07:10:38;;;;;;;3.05;1.48;;;12.40;88.80;;;;;;5013168;28;20053;-66
2023/03/24 07:13:12;;;;;;;3.45;1.67;;;12.40;88.80;;;;;;5010722;28;20057;-67
2023/03/24 07:15:47;;;;;;;2.92;1.60;;;12.50;88.80;;;;;;5029034;28;20133;-63
2023/03/24 07:18:20;;;;;;;2.90;1.63;;;12.50;88.80;;;;;;5032771;28;20056;-62
2023/03/24 07:20:58;;;;;;;4.00;1.95;;;12.50;88.80;;;;;;5031936;28;20487;-67
2023/03/24 07:23:34;;;;;;;3.28;1.60;;;12.60;88.80;;;;;;5013184;28;20045;-67
2023/03/24 07:26:13;;;;;;;3.40;1.67;;;12.50;88.80;;;;;;5011694;28;20056;-61
2023/03/24 07:28:47;;;;;;;3.75;1.85;;;12.60;88.60;;;;;;5033127;28;20056;-62
2023/03/24 07:31:37;;;;;;;4.57;1.80;;;12.60;88.60;;;;;;5017482;28;20592;-63
2023/03/24 07:34:13;;;;;;;3.78;1.98;;;12.60;88.60;;;;;;5007674;28;20129;-61
2023/03/24 07:36:46;;;;;;;3.85;2.13;;;12.70;88.30;;;;;;5024225;28;20041;-60
2023/03/24 07:39:19;;;;;;;3.20;1.88;;;12.70;88.40;;;;;;5006959;28;20098;-61
2023/03/24 07:41:53;;;;;;;3.83;1.90;;;12.70;88.40;;;;;;5004144;28;20060;-69
2023/03/24 07:44:37;;;;;;;2.90;1.65;;;12.70;88.20;;;;;;5019902;28;20482;-70
2023/03/24 07:47:12;;;;;;;3.72;1.55;;;12.80;88.20;;;;;;5023697;28;20058;-70
2023/03/24 07:49:47;;;;;;;2.60;1.48;;;12.80;88.20;;;;;;5021879;28;20115;-71
2023/03/24 07:52:21;;;;;;;3.47;1.67;;;12.80;88.00;;;;;;5033361;28;20280;-61
2023/03/24 07:54:55;;;;;;;2.90;1.60;;;12.80;87.90;;;;;;5013863;28;20058;-61
2023/03/24 07:57:49;;;;;;;3.10;1.45;;;12.90;87.80;;;;;;5024764;28;20049;-62
2023/03/24 08:00:27;;;;;;;2.40;1.40;;;12.90;87.60;;;;;;5015685;28;20076;-61
2023/03/24 08:03:32;;;;;;;2.85;1.63;;;13.00;87.70;;;;;;5013462;28;20138;-62
2023/03/24 08:06:17;;;;;;;3.85;1.73;;;13.00;87.80;;;;;;5012703;28;20196;-62
2023/03/24 08:08:51;;;;;;;4.45;1.70;;;12.90;87.60;;;;;;5011350;28;20050;-61
2023/03/24 08:11:25;;;;;;;3.35;1.80;;;12.90;87.60;;;;;;5014295;28;20451;-60
2023/03/24 08:13:58;;;;;;;3.63;1.80;;;12.90;87.60;;;;;;5014364;28;20072;-60
2023/03/24 08:16:31;;;;;;;3.17;1.60;;;13.00;87.70;;;;;;4991691;28;20511;-69
2023/03/24 08:19:06;;;;;;;4.43;1.60;;;13.00;87.50;;;;;;5013797;28;20038;-70
2023/03/24 08:21:39;;;;;;;2.38;1.40;;;13.00;87.40;;;;;;5011073;28;20049;-62
2023/03/24 08:24:13;;;;;;;3.97;1.50;;;13.00;87.40;;;;;;4995357;28;20049;-61
2023/03/24 08:26:41;;;;;;;3.83;1.60;;;13.00;87.40;;;;;;5013557;28;20050;-63
2023/03/24 08:29:14;;;;;;;3.33;1.90;;;13.00;87.40;;;;;;5015094;28;20070;-61
2023/03/24 08:31:47;;;;;;;2.50;1.42;;;13.00;87.40;;;;;;5014745;28;20135;-71
2023/03/24 08:34:23;;;;;;;2.50;1.55;;;13.00;87.60;;;;;;5014595;28;20092;-71
2023/03/24 08:36:57;;;;;;;3.22;1.58;;;12.90;87.80;;;;;;5013653;28;20049;-62
2023/03/24 08:39:31;;;;;;;2.85;1.60;;;12.90;87.90;;;;;;5010713;28;20051;-63
2023/03/24 08:42:04;;;;;;;3.63;1.75;;;12.90;88.00;;;;;;5011794;28;20129;-65
2023/03/24 08:44:38;;;;;;;2.33;1.25;;;12.90;88.10;;;;;;5012265;28;20140;-67
2023/03/24 08:47:11;;;;;;;3.47;1.60;;;12.90;88.20;;;;;;5013758;28;20053;-70
2023/03/24 08:49:47;;;;;;;3.95;1.55;;;12.80;88.60;;;;;;5010984;28;20054;-70
2023/03/24 08:52:20;;;;;;;2.85;1.63;;;12.80;88.40;;;;;;5009006;28;20365;-70
2023/03/24 08:54:53;;;;;;;4.32;1.98;;;12.70;89.00;;;;;;5013552;28;20045;-69
2023/03/24 08:57:26;;;;;;;3.35;1.70;;;12.80;89.20;;;;;;5011860;28;20065;-61
2023/03/24 08:59:53;;;;;;;4.45;1.80;;;12.70;89.40;;;;;;5011440;28;20073;-62
2023/03/24 09:02:33;;;;;;;4.13;1.58;;;12.70;89.70;;;;;;5012550;28;20098;-69
2023/03/24 09:05:16;;;;;;;4.88;1.95;;;12.70;89.50;;;;;;5011442;28;20564;-71
2023/03/24 09:07:51;;;;;;;5.40;2.03;;;12.70;89.10;;;;;;5010221;28;20099;-69
2023/03/24 09:10:24;;;;;;;3.80;1.85;;;12.70;89.90;;;;;;5012533;28;20064;-69
2023/03/24 09:12:57;;;;;;;3.65;1.80;;;12.70;90.00;;;;;;5011884;28;20108;-70
2023/03/24 09:15:32;;;;;;;4.22;2.03;;;12.60;89.90;;;;;;5011832;28;20054;-65
2023/03/24 09:18:06;;;;;;;4.07;2.10;;;12.60;90.00;;;;;;5010555;28;20042;-65
2023/03/24 09:20:40;;;;;;;4.00;1.52;;;12.70;89.50;;;;;;5010791;28;20643;-65
2023/03/24 09:23:15;;;;;;;3.85;1.50;;;12.70;89.20;;;;;;5009853;28;20052;-64
2023/03/24 09:25:49;;;;;;;2.70;1.27;;;12.70;89.00;;;;;;5008643;28;20050;-70
2023/03/24 09:28:24;;;;;;;2.08;1.20;;;12.70;88.60;;;;;;5011714;28;20111;-69
2023/03/24 09:30:59;;;;;;;2.70;1.40;;;12.60;88.80;;;;;;5012962;28;20408;-70
2023/03/24 09:33:36;;;;;;;3.55;1.40;;;12.60;89.00;;;;;;5002915;28;20572;-69
2023/03/24 09:36:11;;;;;;;3.63;1.40;;;12.60;89.20;;;;;;5009838;28;20144;-61
2023/03/24 09:38:44;;;;;;;3.10;1.40;;;12.60;89.00;;;;;;5013583;28;20049;-61
2023/03/24 09:41:19;;;;;;;1.85;1.05;;;12.60;88.90;;;;;;5016983;28;20063;-61
2023/03/24 09:43:57;;;;;;;2.03;0.82;;;12.60;88.40;;;;;;5017326;28;20046;-62
2023/03/24 09:46:34;;;;;;;0.65;0.50;;;12.50;88.10;;;;;;5014043;28;20100;-70
2023/03/24 09:49:15;;;;;;;1.10;0.50;;;12.40;88.10;;;;;;5013877;28;20060;-69
2023/03/24 09:51:51;;;;;;;2.10;0.68;;;12.40;87.90;;;;;;5014054;28;20046;-61
2023/03/24 09:54:31;;;;;;;2.10;0.60;;;12.40;87.40;;;;;;5031341;28;20062;-61
2023/03/24 09:57:14;;;;;;;0.85;0.40;;;12.30;87.50;;;;;;5034597;28;20590;-70
2023/03/24 09:59:47;;;;;;;1.45;0.50;;;12.40;87.40;;;;;;5013952;28;20042;-69
2023/03/24 10:02:29;;;;;;;3.78;0.60;;;12.30;87.60;;;;;;5013227;28;20499;-69
2023/03/24 10:05:08;;;;;;;1.33;0.38;;;12.30;87.60;;;;;;5014383;28;20132;-69
2023/03/24 10:07:51;;;;;;;1.35;0.50;;;12.40;87.40;;;;;;5009452;28;20079;-61
2023/03/24 10:10:33;;;;;;;1.85;0.50;;;12.40;87.20;;;;;;5016015;28;20069;-61
2023/03/24 10:13:11;;;;;;;3.08;0.47;;;12.40;87.60;;;;;;5015210;28;20045;-61
2023/03/24 10:15:48;;;;;;;0.82;0.43;;;12.30;87.90;;;;;;5013951;28;20057;-62
2023/03/24 10:18:34;;;;;;;1.42;0.75;;;12.30;88.00;;;;;;5017648;28;20064;-62
2023/03/24 10:21:16;;;;;;;2.50;0.70;;;12.30;88.00;;;;;;5014861;28;20132;-66
2023/03/24 10:23:58;;;;;;;2.90;1.10;;;12.30;88.20;;;;;;5014820;28;20060;-67
2023/03/24 10:26:42;;;;;;;2.38;1.02;;;12.30;87.90;;;;;;5015734;28;20045;-62
2023/03/24 10:29:27;;;;;;;3.05;1.13;;;12.30;87.70;;;;;;5015877;28;20129;-61
2023/03/24 10:32:06;;;;;;;4.53;1.88;;;12.30;87.60;;;;;;5015918;28;20057;-61
2023/03/24 10:34:41;;;;;;;2.53;0.82;;;12.20;87.40;;;;;;5035394;28;20050;-61
2023/03/24 10:37:16;;;;;;;1.83;0.60;;;12.30;87.10;;;;;;5013292;28;20511;-62
2023/03/24 10:39:51;;;;;;;1.98;0.60;;;12.20;87.00;;;;;;5017591;28;20033;-63
2023/03/24 10:42:26;;;;;;;1.98;0.75;;;12.20;86.80;;;;;;5013881;28;20045;-68
2023/03/24 10:44:59;;;;;;;2.90;0.88;;;12.20;86.60;;;;;;5010259;28;20053;-69
2023/03/24 10:47:33;;;;;;;2.15;0.73;;;12.20;86.80;;;;;;5014008;28;20138;-61
2023/03/24 10:50:09;;;;;;;2.58;0.60;;;12.10;87.20;;;;;;5007389;28;20065;-60
2023/03/24 10:52:45;;;;;;;2.55;0.98;;;12.10;87.20;;;;;;5011660;28;20184;-62
2023/03/24 10:55:22;;;;;;;2.53;1.00;;;12.00;86.70;;;;;;5011605;28;20096;-61
2023/03/24 10:57:58;;;;;;;1.58;0.63;;;11.90;86.60;;;;;;5011811;28;20531;-62
2023/03/24 11:00:33;;;;;;;2.58;0.60;;;11.90;86.40;;;;;;5011043;28;20052;-70
2023/03/24 11:03:12;;;;;;;2.10;0.77;;;11.90;86.60;;;;;;5029962;28;20110;-71
2023/03/24 11:05:58;;;;;;;2.10;0.63;;;11.80;86.60;;;;;;5034749;28;20140;-63
2023/03/24 11:08:35;;;;;;;4.38;0.80;;;11.90;86.20;;;;;;5033368;28;20056;-62
2023/03/24 11:11:28;;;;;;;3.38;1.00;;;11.90;86.20;;;;;;5033874;28;20495;-68
2023/03/24 11:14:03;;;;;;;2.35;0.60;;;12.00;86.50;;;;;;5035231;28;20045;-67
2023/03/24 11:16:38;;;;;;;3.97;0.90;;;12.10;86.50;;;;;;5034515;28;20103;-69
2023/03/24 11:19:19;;;;;;;2.75;0.57;;;12.10;86.50;;;;;;5034912;28;20053;-70
2023/03/24 11:21:59;;;;;;;3.13;0.68;;;12.10;86.30;;;;;;5034145;28;20148;-62
2023/03/24 11:24:36;;;;;;;4.65;1.05;;;12.20;86.10;;;;;;5030340;28;20048;-62
2023/03/24 11:27:15;;;;;;;2.45;0.68;;;12.20;86.70;;;;;;5033541;28;20376;-61
2023/03/24 11:29:52;;;;;;;1.73;0.60;;;12.30;86.70;;;;;;5033122;28;20057;-61
2023/03/24 11:32:28;;;;;;;5.35;1.67;;;12.30;86.90;;;;;;5033476;28;20099;-68
2023/03/24 11:35:06;;;;;;;6.55;3.22;;;12.30;86.40;;;;;;5032235;28;20049;-69
2023/03/24 11:37:40;;;;;;;8.98;3.45;;;12.30;86.30;;;;;;5032556;28;20111;-62
2023/03/24 11:40:21;;;;;;;9.00;3.63;;;12.40;86.60;;;;;;5036069;28;20110;-62
2023/03/24 11:42:59;;;;;;;8.07;3.80;;;12.40;86.60;;;;;;5033189;28;20037;-61
2023/03/24 11:45:38;;;;;;;7.57;3.00;;;12.50;86.30;;;;;;5035556;28;20124;-69
2023/03/24 11:48:25;;;;;;;7.22;2.60;;;12.50;86.30;;;;;;5031080;28;20382;-68
2023/03/24 11:51:00;;;;;;;10.43;3.42;;;12.60;86.30;;;;;;5032947;28;20576;-63
2023/03/24 11:53:42;;;;;;;8.70;3.35;;;12.60;86.40;;;;;;5030390;28;20053;-62
2023/03/24 11:56:23;;;;;;;7.63;3.35;;;12.60;86.30;;;;;;5032434;28;20053;-62
2023/03/24 11:59:06;;;;;;;6.63;2.42;;;12.60;86.10;;;;;;5032621;28;20061;-61
2023/03/24 12:01:46;;;;;;;6.22;2.60;;;12.60;86.20;;;;;;5031578;28;20072;-62
2023/03/24 12:04:36;;;;;;;5.80;2.30;;;12.60;86.30;;;;;;5008969;28;20123;-62
2023/03/24 12:07:39;;;;;;;7.38;2.80;;;12.60;86.50;;;;;;5010350;28;20038;-62
2023/03/24 12:10:27;;;;;;;9.93;3.83;;;12.60;86.10;;;;;;5014462;28;20041;-61
2023/03/24 12:13:07;;;;;;;7.93;3.75;;;12.60;86.10;;;;;;5033983;28;20254;-63
2023/03/24 12:15:53;;;;;;;12.82;4.70;;;12.70;86.00;;;;;;5033697;28;20048;-63
2023/03/24 12:18:55;;;;;;;6.85;3.42;;;12.90;86.30;;;;;;5024766;28;20136;-64
2023/03/24 12:21:43;;;;;;;6.88;3.10;;;13.00;86.40;;;;;;5032444;28;20045;-62
2023/03/24 12:24:28;;;;;;;6.30;2.42;;;13.00;86.20;;;;;;5010648;28;20045;-61
2023/03/24 12:27:01;;;;;;;5.82;1.92;;;13.20;86.40;;;;;;5031978;28;20151;-71
2023/03/24 12:29:54;;;;;;;6.65;2.40;;;13.20;85.80;;;;;;5032974;28;20605;-69
2023/03/24 12:33:01;;;;;;;5.28;2.28;;;13.40;85.70;;;;;;5013189;28;20092;-60
2023/03/24 12:35:46;;;;;;;4.32;1.80;;;13.40;85.90;;;;;;5028335;28;20057;-67
2023/03/24 12:38:56;;;;;;;3.85;1.42;;;13.50;85.60;;;;;;5028874;28;20060;-68
2023/03/24 12:41:47;;;;;;;6.60;2.72;;;13.60;85.70;;;;;;5029963;28;20082;-62
2023/03/24 12:45:03;;;;;;;8.45;4.22;;;13.70;85.60;;;;;;5013777;28;20132;-62
2023/03/24 12:47:54;;;;;;;5.78;2.60;;;13.70;85.70;;;;;;4998949;28;20102;-71
2023/03/24 12:50:41;;;;;;;5.50;2.47;;;13.80;85.60;;;;;;5010862;28;20099;-71
2023/03/24 12:53:29;;;;;;;5.03;2.03;;;13.80;85.60;;;;;;5012411;28;20119;-69
2023/03/24 12:56:09;;;;;;;7.35;3.30;;;13.80;85.40;;;;;;5012574;28;20112;-63
2023/03/24 12:58:46;;;;;;;8.88;3.80;;;13.80;85.50;;;;;;5012161;28;20038;-64
2023/03/24 13:01:28;;;;;;;7.93;3.47;;;13.80;85.30;;;;;;5011954;28;20053;-64
2023/03/24 13:04:13;;;;;;;6.30;2.88;;;13.90;85.30;;;;;;5012080;28;20057;-64
2023/03/24 13:06:52;;;;;;;4.18;1.80;;;14.00;85.10;;;;;;5012976;28;20048;-60
2023/03/24 13:09:38;;;;;;;5.05;2.03;;;13.90;85.00;;;;;;5005874;28;20087;-60
2023/03/24 13:12:15;;;;;;;4.47;1.70;;;13.90;84.90;;;;;;5013220;28;20056;-61
2023/03/24 13:15:00;;;;;;;3.13;1.23;;;13.90;84.60;;;;;;5006922;28;20102;-60
2023/03/24 13:17:38;;;;;;;3.10;0.93;;;14.00;84.40;;;;;;5027423;28;20052;-60
2023/03/24 13:20:14;;;;;;;2.58;0.85;;;14.00;84.00;;;;;;5008218;28;20056;-60
2023/03/24 13:22:50;;;;;;;3.40;1.02;;;14.00;84.00;;;;;;5003488;28;20057;-68
2023/03/24 13:25:32;;;;;;;4.72;1.80;;;14.20;83.70;;;;;;5031094;28;20049;-68
2023/03/24 13:28:12;;;;;;;5.65;2.35;;;14.20;83.30;;;;;;5034355;28;20420;-68
2023/03/24 13:30:45;;;;;;;6.10;2.65;;;14.20;83.00;;;;;;5029412;28;20052;-61
2023/03/24 13:33:23;;;;;;;6.18;2.60;;;14.10;82.70;;;;;;5009869;28;20061;-62
2023/03/24 13:36:14;;;;;;;7.40;3.30;;;14.20;82.40;;;;;;5011267;28;20145;-70
2023/03/24 13:38:52;;;;;;;6.57;2.95;;;14.20;82.30;;;;;;5007576;28;20038;-69
2023/03/24 13:41:31;;;;;;;5.88;2.72;;;14.20;82.20;;;;;;5012538;28;20069;-69
2023/03/24 13:44:08;;;;;;;7.47;3.28;;;14.20;81.60;;;;;;5015663;28;20123;-70
2023/03/24 13:46:42;;;;;;;8.60;4.38;;;14.20;81.40;;;;;;5001750;28;20108;-61
2023/03/24 13:49:16;;;;;;;10.27;5.38;;;14.30;81.70;;;;;;5013172;28;20709;-60
2023/03/24 13:51:49;;;;;;;7.47;3.90;;;14.30;81.60;;;;;;5012957;28;20055;-62
2023/03/24 13:54:27;;;;;;;6.38;3.20;;;14.30;81.20;;;;;;5013011;28;20502;-63